Time;durP1;ratioP1;P1;durP2;ratioP2;P2;SDS_P1;SDS_P2;PMS_P1;PMS_P2;Temp;Humidity;BMP_temperature;BMP_pressure;BME280_temperature;BME280_humidity;BME280_pressure;Samples;Min_cycle;Max_cycle;Signal;HPM_P1;HPM_P2
2021/07/06 00:00:24;;;;;;;2.47;1.20;;;;;;;;;;5051942;28;20097;-95
2021/07/06 00:02:51;;;;;;;1.73;1.20;;;;;;;;;;5052338;28;20388;-91
2021/07/06 00:05:18;;;;;;;3.33;1.30;;;;;;;;;;5052424;28;20469;-91
2021/07/06 00:07:44;;;;;;;2.03;1.20;;;;;;;;;;5052607;28;20060;-91
2021/07/06 00:10:10;;;;;;;1.98;1.30;;;;;;;;;;5051420;28;20060;-92
2021/07/06 00:12:36;;;;;;;1.58;1.23;;;;;;;;;;5050843;28;20025;-92
2021/07/06 00:15:04;;;;;;;3.95;1.40;;;;;;;;;;5049744;28;20055;-90
2021/07/06 00:17:29;;;;;;;2.05;1.50;;;;;;;;;;5052342;28;20025;-92
2021/07/06 00:19:54;;;;;;;4.57;1.50;;;;;;;;;;5051300;28;20028;-91
2021/07/06 00:22:22;;;;;;;1.70;1.48;;;;;;;;;;5051486;28;20040;-91
2021/07/06 00:24:48;;;;;;;4.50;1.65;;;;;;;;;;5052827;28;20025;-92
2021/07/06 00:27:14;;;;;;;3.40;1.58;;;;;;;;;;5051461;28;20021;-92
2021/07/06 00:29:40;;;;;;;2.80;1.60;;;;;;;;;;5050275;28;20392;-91
2021/07/06 00:32:05;;;;;;;1.65;1.40;;;;;;;;;;5044719;28;20061;-91
2021/07/06 00:34:32;;;;;;;1.40;1.30;;;;;;;;;;5048453;28;20023;-91
2021/07/06 00:36:57;;;;;;;1.15;1.05;;;;;;;;;;5050369;28;20051;-91
2021/07/06 00:39:23;;;;;;;1.70;1.35;;;;;;;;;;5050198;28;20134;-91
2021/07/06 00:41:48;;;;;;;2.90;1.50;;;;;;;;;;5050991;28;20116;-91
2021/07/06 00:44:15;;;;;;;1.90;1.45;;;;;;;;;;5051474;28;20051;-91
2021/07/06 00:46:42;;;;;;;3.08;1.65;;;;;;;;;;5052553;28;20017;-91
2021/07/06 00:49:07;;;;;;;2.17;1.33;;;;;;;;;;5050298;28;20103;-92
2021/07/06 00:51:33;;;;;;;2.42;1.48;;;;;;;;;;5052143;28;20429;-92
2021/07/06 00:53:59;;;;;;;3.85;1.67;;;;;;;;;;5052225;28;20107;-91
2021/07/06 00:56:25;;;;;;;4.50;1.30;;;;;;;;;;5050317;28;20021;-92
2021/07/06 00:58:50;;;;;;;2.47;1.55;;;;;;;;;;5051438;28;20025;-91
2021/07/06 01:01:18;;;;;;;2.40;1.40;;;;;;;;;;5051852;28;20027;-90
2021/07/06 01:03:44;;;;;;;2.40;1.52;;;;;;;;;;5051683;28;20040;-91
2021/07/06 01:06:11;;;;;;;3.15;1.60;;;;;;;;;;5050099;28;20024;-91
2021/07/06 01:08:37;;;;;;;4.13;1.63;;;;;;;;;;5049974;28;20037;-91
2021/07/06 01:11:03;;;;;;;2.25;1.63;;;;;;;;;;5050793;28;20120;-92
2021/07/06 01:13:34;;;;;;;3.13;1.77;;;;;;;;;;5055431;28;20094;-91
2021/07/06 01:15:59;;;;;;;;;;;;;;;;;;5071319;28;20029;-91
2021/07/06 01:18:25;;;;;;;3.08;1.50;;;;;;;;;;5069933;28;19999;-92
2021/07/06 01:20:53;;;;;;;3.53;1.70;;;;;;;;;;5071498;28;20032;-91
2021/07/06 01:23:21;;;;;;;1.63;1.50;;;;;;;;;;5050467;28;20027;-91
2021/07/06 01:25:56;;;;;;;2.58;1.80;;;;;;;;;;5043078;28;20027;-91
2021/07/06 01:28:24;;;;;;;4.60;2.13;;;;;;;;;;5051190;28;20032;-90
2021/07/06 01:30:50;;;;;;;3.65;1.80;;;;;;;;;;5050282;28;20021;-91
2021/07/06 01:33:22;;;;;;;5.50;1.55;;;;;;;;;;5049850;28;20039;-90
2021/07/06 01:35:49;;;;;;;4.32;1.67;;;;;;;;;;5050784;28;20028;-91
2021/07/06 01:38:15;;;;;;;2.33;1.98;;;;;;;;;;5049618;28;20493;-91
2021/07/06 01:40:40;;;;;;;5.43;1.90;;;;;;;;;;5039907;28;20463;-91
2021/07/06 01:43:06;;;;;;;4.25;1.83;;;;;;;;;;5050025;28;20134;-91
2021/07/06 01:45:32;;;;;;;2.50;1.55;;;;;;;;;;5051175;28;20067;-90
2021/07/06 01:48:00;;;;;;;3.22;1.67;;;;;;;;;;5049877;28;20029;-91
2021/07/06 01:50:28;;;;;;;3.78;1.50;;;;;;;;;;5051465;28;20021;-91
2021/07/06 01:52:56;;;;;;;5.35;1.92;;;;;;;;;;5049318;28;20124;-91
2021/07/06 01:55:28;;;;;;;2.25;1.80;;;;;;;;;;5051678;28;20129;-90
2021/07/06 01:57:54;;;;;;;5.10;1.83;;;;;;;;;;5047273;28;20032;-90
2021/07/06 02:00:22;;;;;;;2.53;2.05;;;;;;;;;;5055205;28;20021;-90
2021/07/06 02:02:49;;;;;;;6.22;2.25;;;;;;;;;;5054279;28;20025;-91
2021/07/06 02:05:15;;;;;;;2.50;2.00;;;;;;;;;;5055107;28;20025;-91
2021/07/06 02:07:42;;;;;;;2.33;2.00;;;;;;;;;;5054771;28;20380;-91
2021/07/06 02:10:08;;;;;;;4.15;2.00;;;;;;;;;;5054966;28;20028;-91
2021/07/06 02:12:34;;;;;;;3.88;2.00;;;;;;;;;;5048941;28;20033;-91
2021/07/06 02:15:00;;;;;;;5.40;2.30;;;;;;;;;;5047562;28;20033;-92
2021/07/06 02:17:27;;;;;;;4.50;2.08;;;;;;;;;;5055106;28;20028;-91
2021/07/06 02:19:52;;;;;;;4.47;2.47;;;;;;;;;;5053310;28;20017;-92
2021/07/06 02:22:18;;;;;;;6.00;2.75;;;;;;;;;;5053369;28;20025;-91
2021/07/06 02:24:44;;;;;;;4.72;2.10;;;;;;;;;;5054865;28;20025;-91
2021/07/06 02:27:10;;;;;;;2.70;2.10;;;;;;;;;;5053910;28;20024;-91
2021/07/06 02:29:35;;;;;;;2.95;2.10;;;;;;;;;;5053348;28;20512;-90
2021/07/06 02:32:01;;;;;;;4.25;2.65;;;;;;;;;;5042654;28;20116;-91
2021/07/06 02:34:26;;;;;;;3.50;2.40;;;;;;;;;;5054269;28;20025;-91
2021/07/06 02:36:52;;;;;;;5.05;2.67;;;;;;;;;;5053211;28;20028;-90
2021/07/06 02:39:17;;;;;;;4.53;2.25;;;;;;;;;;5052672;28;20124;-91
2021/07/06 02:41:43;;;;;;;5.40;2.30;;;;;;;;;;5053468;28;20066;-91
2021/07/06 02:44:08;;;;;;;3.85;2.55;;;;;;;;;;5052997;28;20066;-91
2021/07/06 02:46:33;;;;;;;5.00;2.58;;;;;;;;;;5054502;28;20121;-91
2021/07/06 02:48:59;;;;;;;5.88;2.40;;;;;;;;;;5039857;28;20029;-90
2021/07/06 02:51:24;;;;;;;3.30;2.40;;;;;;;;;;5052582;28;20027;-90
2021/07/06 02:53:50;;;;;;;5.57;2.22;;;;;;;;;;5053401;28;20035;-91
2021/07/06 02:56:15;;;;;;;3.33;2.42;;;;;;;;;;5054672;28;20023;-91
2021/07/06 02:58:41;;;;;;;3.53;2.55;;;;;;;;;;5054074;28;20061;-92
2021/07/06 03:01:06;;;;;;;7.35;2.50;;;;;;;;;;5054414;28;20032;-90
2021/07/06 03:03:32;;;;;;;3.90;2.50;;;;;;;;;;5045640;28;20025;-91
2021/07/06 03:05:57;;;;;;;4.72;2.40;;;;;;;;;;5052655;28;20028;-93
2021/07/06 03:08:22;;;;;;;5.55;2.33;;;;;;;;;;5051907;28;20120;-92
2021/07/06 03:10:48;;;;;;;3.85;2.53;;;;;;;;;;5052191;28;20098;-91
2021/07/06 03:13:13;;;;;;;5.47;2.47;;;;;;;;;;5051638;28;20112;-90
2021/07/06 03:15:39;;;;;;;5.30;2.40;;;;;;;;;;5052425;28;20029;-91
2021/07/06 03:18:06;;;;;;;6.05;2.05;;;;;;;;;;5052641;28;20119;-90
2021/07/06 03:20:32;;;;;;;4.65;2.33;;;;;;;;;;5039244;28;20382;-91
2021/07/06 03:22:58;;;;;;;2.72;2.13;;;;;;;;;;5044871;28;20409;-91
2021/07/06 03:25:26;;;;;;;7.00;2.90;;;;;;;;;;5052423;28;20039;-91
2021/07/06 03:27:52;;;;;;;4.32;2.17;;;;;;;;;;5053033;28;20037;-92
2021/07/06 03:30:23;;;;;;;3.97;2.20;;;;;;;;;;5053810;28;20544;-92
2021/07/06 03:32:50;;;;;;;3.38;2.50;;;;;;;;;;5051323;28;20509;-92
2021/07/06 03:35:16;;;;;;;2.65;2.33;;;;;;;;;;5052577;28;20464;-91
2021/07/06 03:37:42;;;;;;;8.27;2.88;;;;;;;;;;5051710;28;20102;-92
2021/07/06 03:40:09;;;;;;;4.05;2.53;;;;;;;;;;5053524;28;20021;-92
2021/07/06 03:42:35;;;;;;;3.08;2.42;;;;;;;;;;5051568;28;20028;-91
2021/07/06 03:45:01;;;;;;;5.50;2.60;;;;;;;;;;5051630;28;20025;-92
2021/07/06 03:47:27;;;;;;;3.95;2.67;;;;;;;;;;5052324;28;20025;-91
2021/07/06 03:49:52;;;;;;;5.10;2.80;;;;;;;;;;5052628;28;20071;-91
2021/07/06 03:52:18;;;;;;;4.38;2.58;;;;;;;;;;5052480;28;20028;-91
2021/07/06 03:54:43;;;;;;;4.05;2.47;;;;;;;;;;5051056;28;20381;-92
2021/07/06 03:57:08;;;;;;;4.30;2.63;;;;;;;;;;5050893;28;20024;-91
2021/07/06 03:59:34;;;;;;;6.32;2.60;;;;;;;;;;5053381;28;20036;-91
2021/07/06 04:02:00;;;;;;;6.47;2.42;;;;;;;;;;5052768;28;20036;-91
2021/07/06 04:04:25;;;;;;;5.05;2.28;;;;;;;;;;5051869;28;20021;-91
2021/07/06 04:06:51;;;;;;;6.03;2.60;;;;;;;;;;5052067;28;20060;-91
2021/07/06 04:09:16;;;;;;;4.13;2.47;;;;;;;;;;5050327;28;20099;-91
2021/07/06 04:11:42;;;;;;;4.18;2.75;;;;;;;;;;5051250;28;20179;-90
2021/07/06 04:14:07;;;;;;;3.03;2.45;;;;;;;;;;5052981;28;20025;-91
2021/07/06 04:16:33;;;;;;;6.72;3.10;;;;;;;;;;5050125;28;20024;-91
2021/07/06 04:18:58;;;;;;;5.85;2.72;;;;;;;;;;5049999;28;20029;-92
2021/07/06 04:21:24;;;;;;;3.80;2.63;;;;;;;;;;5052534;28;20033;-90
2021/07/06 04:23:49;;;;;;;6.43;2.47;;;;;;;;;;5051328;28;20029;-91
2021/07/06 04:26:15;;;;;;;3.80;2.63;;;;;;;;;;5050524;28;20033;-91
2021/07/06 04:28:41;;;;;;;5.35;2.75;;;;;;;;;;5045853;28;20519;-92
2021/07/06 04:31:06;;;;;;;9.90;6.22;;;;;;;;;;5052195;28;20021;-91
2021/07/06 04:33:32;;;;;;;4.32;3.40;;;;;;;;;;5051977;28;20097;-91
2021/07/06 04:35:58;;;;;;;7.53;3.47;;;;;;;;;;5050167;28;20116;-91
2021/07/06 04:38:23;;;;;;;6.30;2.97;;;;;;;;;;5052329;28;20024;-91
2021/07/06 04:40:49;;;;;;;4.15;3.30;;;;;;;;;;5052641;28;20071;-91
2021/07/06 04:43:14;;;;;;;3.80;3.28;;;;;;;;;;5040216;28;20030;-91
2021/07/06 04:45:40;;;;;;;4.80;3.50;;;;;;;;;;5050411;28;20056;-91
2021/07/06 04:48:06;;;;;;;5.80;4.00;;;;;;;;;;5048657;28;20071;-91
2021/07/06 04:50:36;;;;;;;5.05;3.60;;;;;;;;;;5049824;28;20063;-94
2021/07/06 04:53:02;;;;;;;6.13;3.42;;;;;;;;;;5052813;28;20024;-93
2021/07/06 04:55:27;;;;;;;6.45;3.10;;;;;;;;;;5051821;28;20028;-93
2021/07/06 04:57:53;;;;;;;7.53;2.90;;;;;;;;;;5051579;28;20159;-94
2021/07/06 05:00:18;;;;;;;9.57;2.90;;;;;;;;;;5051149;28;20107;-92
2021/07/06 05:02:45;;;;;;;7.05;2.83;;;;;;;;;;5051649;28;20523;-94
2021/07/06 05:05:12;;;;;;;4.40;2.78;;;;;;;;;;5049970;28;20024;-92
2021/07/06 05:07:38;;;;;;;7.63;3.13;;;;;;;;;;5051204;28;20021;-92
2021/07/06 05:10:09;;;;;;;9.13;3.13;;;;;;;;;;5051443;28;20400;-93
2021/07/06 05:12:35;;;;;;;3.70;2.60;;;;;;;;;;5049671;28;20060;-93
2021/07/06 05:15:06;;;;;;;6.20;2.75;;;;;;;;;;5056863;28;20108;-90
2021/07/06 05:17:32;;;;;;;5.40;2.65;;;;;;;;;;5051317;28;20024;-90
2021/07/06 05:19:57;;;;;;;4.50;2.45;;;;;;;;;;5050150;28;20039;-90
2021/07/06 05:22:23;;;;;;;5.30;2.80;;;;;;;;;;5049956;28;20029;-90
2021/07/06 05:24:51;;;;;;;5.40;2.60;;;;;;;;;;5052013;28;20108;-90
2021/07/06 05:27:17;;;;;;;3.88;2.88;;;;;;;;;;5051023;28;20428;-89
2021/07/06 05:29:43;;;;;;;4.50;2.97;;;;;;;;;;5052030;28;20027;-90
2021/07/06 05:32:08;;;;;;;8.60;3.28;;;;;;;;;;5055337;28;20095;-90
2021/07/06 05:34:34;;;;;;;6.65;2.97;;;;;;;;;;5053460;28;20036;-89
2021/07/06 05:36:59;;;;;;;4.45;2.55;;;;;;;;;;5054320;28;20043;-91
2021/07/06 05:39:25;;;;;;;6.72;2.70;;;;;;;;;;5054292;28;20017;-90
2021/07/06 05:41:51;;;;;;;7.38;3.15;;;;;;;;;;5054037;28;20112;-90
2021/07/06 05:44:17;;;;;;;5.50;2.85;;;;;;;;;;5054571;28;20119;-89
2021/07/06 05:46:42;;;;;;;4.90;2.60;;;;;;;;;;5055702;28;20028;-90
2021/07/06 05:49:17;;;;;;;6.45;2.90;;;;;;;;;;5053486;28;20393;-91
2021/07/06 05:51:45;;;;;;;5.38;2.67;;;;;;;;;;5052228;28;20039;-91
2021/07/06 05:54:11;;;;;;;4.82;2.58;;;;;;;;;;5052696;28;20028;-90
2021/07/06 05:56:39;;;;;;;5.35;2.70;;;;;;;;;;5053799;28;20016;-90
2021/07/06 05:59:04;;;;;;;3.53;2.65;;;;;;;;;;5054643;28;20016;-90
2021/07/06 06:01:31;;;;;;;5.32;2.60;;;;;;;;;;5052743;28;20105;-90
2021/07/06 06:03:57;;;;;;;5.75;3.08;;;;;;;;;;5050915;28;20032;-87
2021/07/06 06:06:22;;;;;;;3.67;2.88;;;;;;;;;;5053791;28;20033;-88
2021/07/06 06:08:48;;;;;;;7.22;3.00;;;;;;;;;;5051709;28;20138;-89
2021/07/06 06:11:14;;;;;;;4.15;2.72;;;;;;;;;;5053466;28;20025;-89
2021/07/06 06:13:39;;;;;;;5.55;2.67;;;;;;;;;;5051982;28;20400;-89
2021/07/06 06:16:05;;;;;;;3.25;2.63;;;;;;;;;;5052420;28;20036;-89
2021/07/06 06:18:31;;;;;;;7.38;2.70;;;;;;;;;;5053476;28;20017;-89
2021/07/06 06:20:56;;;;;;;5.55;2.50;;;;;;;;;;5053339;28;20020;-89
2021/07/06 06:23:22;;;;;;;2.95;2.65;;;;;;;;;;5050587;28;20111;-88
2021/07/06 06:25:47;;;;;;;6.80;3.40;;;;;;;;;;5052717;28;20388;-88
2021/07/06 06:28:13;;;;;;;3.88;2.67;;;;;;;;;;5051469;28;20075;-88
2021/07/06 06:30:38;;;;;;;5.68;3.13;;;;;;;;;;5053521;28;20504;-88
2021/07/06 06:33:03;;;;;;;4.78;3.10;;;;;;;;;;5053416;28;20044;-88
2021/07/06 06:35:29;;;;;;;3.75;2.95;;;;;;;;;;5053637;28;20079;-88
2021/07/06 06:37:54;;;;;;;3.40;2.50;;;;;;;;;;5051747;28;20107;-88
2021/07/06 06:40:20;;;;;;;7.22;3.22;;;;;;;;;;5046499;28;20025;-89
2021/07/06 06:42:46;;;;;;;8.27;3.20;;;;;;;;;;5052539;28;20028;-88
2021/07/06 06:45:13;;;;;;;8.85;3.40;;;;;;;;;;5053188;28;20037;-88
2021/07/06 06:47:39;;;;;;;7.57;3.63;;;;;;;;;;5052354;28;20439;-89
2021/07/06 06:50:06;;;;;;;9.77;4.13;;;;;;;;;;5048477;28;20053;-90
2021/07/06 06:52:32;;;;;;;6.60;3.72;;;;;;;;;;5037907;28;20021;-90
2021/07/06 06:54:57;;;;;;;6.57;3.90;;;;;;;;;;5050709;28;20032;-89
2021/07/06 06:57:24;;;;;;;6.35;3.40;;;;;;;;;;5053616;28;20025;-90
2021/07/06 06:59:49;;;;;;;9.98;3.85;;;;;;;;;;5052476;28;20159;-89
2021/07/06 07:02:19;;;;;;;8.95;3.78;;;;;;;;;;5055885;28;20108;-88
2021/07/06 07:04:46;;;;;;;6.72;3.55;;;;;;;;;;5049119;28;20017;-89
2021/07/06 07:07:16;;;;;;;7.97;3.50;;;;;;;;;;5054448;28;20036;-90
2021/07/06 07:09:41;;;;;;;12.80;4.57;;;;;;;;;;5051912;28;20555;-89
2021/07/06 07:12:08;;;;;;;7.25;4.53;;;;;;;;;;5048119;28;20272;-89
2021/07/06 07:14:34;;;;;;;10.10;5.55;;;;;;;;;;5052904;28;20024;-88
2021/07/06 07:17:00;;;;;;;19.05;8.88;;;;;;;;;;5051615;28;20021;-89
2021/07/06 07:19:26;;;;;;;16.50;10.23;;;;;;;;;;5050841;28;20025;-89
2021/07/06 07:21:51;;;;;;;15.73;9.48;;;;;;;;;;5055358;28;20458;-89
2021/07/06 07:24:17;;;;;;;18.60;11.60;;;;;;;;;;5060198;28;20075;-89
2021/07/06 07:26:42;;;;;;;16.08;12.52;;;;;;;;;;5049683;28;20500;-89
2021/07/06 07:29:08;;;;;;;11.98;8.70;;;;;;;;;;5043275;28;20025;-88
2021/07/06 07:31:33;;;;;;;15.85;8.80;;;;;;;;;;5053482;28;20033;-89
2021/07/06 07:33:59;;;;;;;9.32;6.43;;;;;;;;;;5050790;28;20059;-88
2021/07/06 07:36:26;;;;;;;9.93;4.53;;;;;;;;;;5052873;28;20025;-88
2021/07/06 07:38:51;;;;;;;10.40;6.13;;;;;;;;;;5053389;28;20083;-89
2021/07/06 07:41:17;;;;;;;7.85;5.25;;;;;;;;;;5051714;28;20021;-89
2021/07/06 07:43:42;;;;;;;7.55;4.25;;;;;;;;;;5049412;28;20036;-89
2021/07/06 07:46:08;;;;;;;8.50;4.38;;;;;;;;;;5049866;28;20102;-88
2021/07/06 07:48:33;;;;;;;8.82;5.05;;;;;;;;;;5050911;28;20435;-89
2021/07/06 07:50:59;;;;;;;9.07;4.80;;;;;;;;;;5052155;28;20147;-89
2021/07/06 07:53:24;;;;;;;8.10;4.75;;;;;;;;;;5049753;28;20128;-89
2021/07/06 07:55:52;;;;;;;7.30;4.93;;;;;;;;;;5050982;28;20123;-89
2021/07/06 07:58:18;;;;;;;7.43;4.55;;;;;;;;;;5050152;28;20115;-88
2021/07/06 08:00:43;;;;;;;9.10;4.05;;;;;;;;;;5048793;28;20116;-88
2021/07/06 08:03:08;;;;;;;6.60;4.80;;;;;;;;;;5052242;28;20052;-89
2021/07/06 08:05:34;;;;;;;5.50;3.80;;;;;;;;;;5051680;28;20059;-89
2021/07/06 08:07:59;;;;;;;8.05;4.63;;;;;;;;;;5052549;28;20136;-89
2021/07/06 08:10:25;;;;;;;7.70;4.15;;;;;;;;;;5051234;28;20040;-88
2021/07/06 08:12:51;;;;;;;7.85;4.70;;;;;;;;;;5051709;28;20029;-88
2021/07/06 08:15:16;;;;;;;9.70;4.55;;;;;;;;;;5051634;28;20064;-89
2021/07/06 08:17:43;;;;;;;7.07;3.70;;;;;;;;;;5051839;28;20082;-88
2021/07/06 08:20:09;;;;;;;7.22;4.00;;;;;;;;;;5051311;28;20396;-88
2021/07/06 08:22:35;;;;;;;7.28;3.75;;;;;;;;;;5050491;28;20091;-88
2021/07/06 08:25:03;;;;;;;6.13;3.72;;;;;;;;;;5051099;28;20436;-88
2021/07/06 08:27:35;;;;;;;10.65;4.55;;;;;;;;;;5051267;28;20052;-88
2021/07/06 08:30:01;;;;;;;9.23;4.70;;;;;;;;;;5052253;28;20384;-88
2021/07/06 08:32:26;;;;;;;9.68;4.68;;;;;;;;;;5051837;28;20417;-89
2021/07/06 08:34:52;;;;;;;8.13;4.38;;;;;;;;;;5048671;28;20033;-89
2021/07/06 08:37:17;;;;;;;6.85;4.45;;;;;;;;;;5051553;28;20040;-89
2021/07/06 08:39:43;;;;;;;8.80;4.25;;;;;;;;;;5049982;28;20024;-88
2021/07/06 08:42:09;;;;;;;6.93;4.90;;;;;;;;;;5049173;28;20041;-87
2021/07/06 08:44:39;;;;;;;6.90;4.53;;;;;;;;;;5050557;28;20032;-88
2021/07/06 08:47:05;;;;;;;4.72;4.03;;;;;;;;;;5050693;28;20033;-89
2021/07/06 08:49:32;;;;;;;7.45;4.85;;;;;;;;;;5047466;28;20032;-89
2021/07/06 08:51:59;;;;;;;8.95;5.30;;;;;;;;;;5049728;28;20060;-89
2021/07/06 08:54:24;;;;;;;8.35;4.95;;;;;;;;;;5049938;28;20506;-89
2021/07/06 08:56:50;;;;;;;12.32;5.55;;;;;;;;;;5048732;28;20032;-88
2021/07/06 08:59:15;;;;;;;7.72;5.55;;;;;;;;;;5049218;28;20040;-88
2021/07/06 09:01:41;;;;;;;9.50;5.70;;;;;;;;;;5051143;28;20021;-88
2021/07/06 09:04:06;;;;;;;11.23;6.00;;;;;;;;;;5057544;28;20108;-89
2021/07/06 09:06:54;;;;;;;7.40;5.28;;;;;;;;;;5048147;28;20052;-89
2021/07/06 09:09:22;;;;;;;9.07;5.45;;;;;;;;;;5051566;28;20045;-89
2021/07/06 09:11:53;;;;;;;10.57;6.30;;;;;;;;;;5044274;28;20390;-89
2021/07/06 09:14:19;;;;;;;;;;;;;;;;;;5050597;28;20036;-88
2021/07/06 09:16:45;;;;;;;6.63;5.70;;;;;;;;;;5050793;28;20346;-89
2021/07/06 09:22:34;;;;;;;9.05;5.50;;;;;;;;;;5054505;28;20052;-87
2021/07/06 09:31:37;;;;;;;8.35;4.32;;;;;;;;;;5049165;23;20046;-85
2021/07/06 09:39:56;;;;;;;7.07;3.80;;;;;;;;;;5143533;23;20041;-86
2021/07/06 12:26:29;;;;;;;1.60;1.10;;;;;;;;;;4911738;23;20318;-85
2021/07/06 12:28:55;;;;;;;1.83;1.10;;;;;;;;;;4970077;28;20033;-85
